Portada
METAR-TAF:

METAR-TAF

Aeroports :

Hohhot, Xina

latitud: 40-49N, longitud: 111-41E, altitud: 1065 m

Observació

L'informe es va fer fa 56 minuts, a les 09:00 UTC
Vent 6 kt del Sud-Oest
Temperatura 4°C
Humitat 23%
Pressió 1014 hPa
Visibilitat 10 km o més
sense núvols per sota de 1500 mi sense presència de cumulonimbus.

METAR: ZBHH 050900Z 22003MPS CAVOK 04/M15 Q1014 NOSIG

Hora: 17:56 (09:56 UTC)

Pronòstic

L'informe es va fer fa 6 hores i 54 minuts, a les 03:02 UTC
Pronòstic vàlid del 05 a les 06 UTC al 06 a les 06 UTC
Vent 8 kt del Oest/Sud-Oest
Visibilitat 10 km o més
sense núvols per sota de 1500 mi sense presència de cumulonimbus.

TAF: ZBHH 050302Z 0506/0606 24004MPS CAVOK TX03/0507Z TNM13/0522Z

Observacions i pronòstics meteorològics de més de 4000 aeroports (METAR i TAF).

Les estacions disponibles són els punts grocs i vermells al mapa.

Posi el ratolí al punt desitjat per veure el nom de l'estació.

Feu clic per veure les observacions i els pronòstics meteorològics.

Per canviar el mapa: feu clic els botons verds amb una creu de color negre per apropar; al botó verd amb un guió per allunyar la imatge; o en les fletxes verdes per a mapes adjacents.


METAR-TAF: